LGRD weather

Maritsa Airport
Rodes Island, Dodecanese, Greece

Public forecast

Using degrees Celsius for public forecast. Weather courtesy of forecast.io.

Closest aviation weather report (METAR) to Maritsa Airport

Closest report is Diagoras Airport, 1.7 nm (3.2 km) NW. Retrieved 2020/07/10 19:20 UTC (4 minutes ago):

LGRP 101920Z 24012KT CAVOK 25/22 Q1008 NOSIG

Closest aviation forecast (TAF) to Maritsa Airport

Closest forecast is Diagoras Airport, 1.7 nm (3.2 km) NW. Retrieved 2020/07/10 18:14 UTC (1 hour ago):

TAF LGRP 101700Z 1018/1118 25016KT 9999 FEW020 TEMPO 1110/1118 25016G26KT